Flight Track Log - Related Links

Times and Time Zones

All times are in EDT time to prevent confusion due to time zone crossing. See the SKW6492 flight status page for this flight to view local times or setup timezone preferences in your user account.

Time Position Orientation Groundspeed Altitude Reporting Facility
EDT Latitude Longitude Course Direction KTS MPH feet Rate Location/Type
Sun 09:57:22 PM 39.8833 -104.5667 346° North 199 229 7,600  Level Denver TRACON
Sun 09:58:22 PM 39.9000 -104.4833 75° East 262 302 9,300 1,912 Climbing Denver TRACON
Sun 09:59:00 PM 40.1435 -104.7643 344° North  Level FlightAware Approximate
Sun 09:59:15 PM 39.9392 -104.4108 55° Northeast 286 329 11,200  Level Denver Center
Sun 10:00:00 PM 40.2421 -104.7943 347° North  Level FlightAware Approximate
Sun 10:00:29 PM 40.0125 -104.4450 340° North 293 337 13,400  Level Denver Center
Sun 10:01:00 PM 40.3406 -104.8247 346° North  Level FlightAware Approximate
Sun 10:01:43 PM 40.0983 -104.5047 332° Northwest 294 338 15,600  Level Denver Center
Sun 10:02:00 PM 40.4387 -104.8573 346° North  Level FlightAware Approximate
Sun 10:02:45 PM 40.1989 -104.4367 27° Northeast 337 388 17,000  Level Denver Center
Sun 10:03:47 PM 40.2842 -104.3636 33° Northeast 342 394 18,200 1,355 Climbing Denver Center
Sun 10:04:49 PM 40.3775 -104.3381 12° North 344 396 19,800 1,512 Climbing Denver Center
Sun 10:05:50 PM 40.4739 -104.3094 13° North 327 376 21,300 1,024 Climbing Denver Center
Sun 10:06:52 PM 40.5717 -104.2861 10° North 355 409 21,900 871 Climbing Denver Center
Sun 10:07:54 PM 40.6667 -104.2975 355° North 340 391 23,100 1,306 Climbing Denver Center
Sun 10:08:56 PM 40.7656 -104.3472 339° North 345 397 24,600 1,317 Climbing Denver Center
Sun 10:09:57 PM 40.8533 -104.3997 336° Northwest 345 397 25,800 683 Climbing Denver Center
Sun 10:10:59 PM 40.9433 -104.4481 338° Northwest 351 404 26,000 677 Climbing Denver Center
Sun 10:12:01 PM 41.0414 -104.5039 337° Northwest 368 423 27,200 1,220 Climbing Denver Center
Sun 10:13:02 PM 41.1194 -104.5694 328° Northwest 352 405 28,500 1,122 Climbing Denver Center
Sun 10:14:04 PM 41.2008 -104.6639 319° Northwest 348 400 29,500 726 Climbing Denver Center
Sun 10:15:06 PM 41.2728 -104.7442 320° Northwest 350 403 30,000 244 Climbing Denver Center
Sun 10:16:07 PM 41.3592 -104.8453 319° Northwest 366 421 30,000  Level Denver Center
Sun 10:17:09 PM 41.4364 -104.9372 318° Northwest 383 441 30,000 145 Level Denver Center
Sun 10:18:11 PM 41.5164 -105.0308 319° Northwest 394 453 30,300 585 Climbing Denver Center
Sun 10:19:12 PM 41.5944 -105.1244 318° Northwest 393 452 31,200 732 Climbing Denver Center
Sun 10:20:14 PM 41.6828 -105.2314 318° Northwest 383 441 31,800 387 Climbing Denver Center
Sun 10:21:16 PM 41.7719 -105.3356 319° Northwest 380 437 32,000 98 Climbing Denver Center
Sun 10:22:17 PM 41.8508 -105.4308 318° Northwest 394 453 32,000  Level Denver Center
Sun 10:23:19 PM 41.9442 -105.5428 318° Northwest 402 463 32,000  Level Denver Center
Sun 10:24:21 PM 42.0269 -105.6422 318° Northwest 409 471 32,000  Level Denver Center
Sun 10:25:22 PM 42.1067 -105.7394 318° Northwest 408 470 32,000  Level Denver Center
Sun 10:26:24 PM 42.1869 -105.8353 319° Northwest 403 464 32,000  Level Denver Center
Sun 10:27:26 PM 42.2817 -105.9489 318° Northwest 407 468 32,000  Level Denver Center
Sun 10:28:27 PM 42.3744 -106.0622 318° Northwest 402 463 32,000  Level Denver Center
Sun 10:29:29 PM 42.4544 -106.1597 318° Northwest 403 464 32,000  Level Denver Center
Sun 10:30:31 PM 42.5350 -106.2567 318° Northwest 404 465 32,000  Level Denver Center
Sun 10:31:33 PM 42.6400 -106.3539 326° Northwest 407 468 32,000  Level Denver Center
Sun 10:32:34 PM 42.7297 -106.4350 326° Northwest 406 467 32,000  Level Denver Center
Sun 10:33:48 PM 42.8375 -106.5244 329° Northwest 405 466 32,000  Level Denver Center
Sun 10:34:50 PM 42.9428 -106.6164 327° Northwest 403 464 32,000  Level Denver Center
Sun 10:35:52 PM 43.0519 -106.7019 330° Northwest 403 464 32,000  Level Denver Center
Sun 10:36:54 PM 43.1439 -106.7814 328° Northwest 405 466 32,000  Level Denver Center
Sun 10:38:07 PM 43.2300 -106.9075 313° West 406 467 32,000  Level Denver Center
Sun 10:38:56 PM 43.3050 -107.0172 313° West 407 468 32,000  Level Salt Lake Center
Sun 10:39:58 PM 43.3900 -107.1492 312° West 411 473 32,000  Level Salt Lake Center
Sun 10:40:59 PM 43.4614 -107.2636 311° West 412 474 32,000  Level Salt Lake Center
Sun 10:42:01 PM 43.5403 -107.3914 310° West 412 474 32,000  Level Salt Lake Center
Sun 10:43:03 PM 43.6114 -107.5067 310° West 412 474 32,000  Level Salt Lake Center
Sun 10:44:04 PM 43.6961 -107.6422 311° West 417 480 32,000  Level Salt Lake Center
Sun 10:45:06 PM 43.7664 -107.7583 310° West 414 476 32,000  Level Salt Lake Center
Sun 10:46:07 PM 43.8369 -107.8758 310° West 415 478 32,000 -1,512 Level Salt Lake Center
Sun 10:47:09 PM 43.9192 -108.0125 310° West 414 476 28,900 -3,171 Descending Salt Lake Center
Sun 10:48:10 PM 43.9897 -108.1292 310° West 414 476 25,500 -3,268 Descending Salt Lake Center
Sun 10:49:12 PM 44.0583 -108.2436 310° West 405 466 22,200 -3,659 Descending Salt Lake Center
Sun 10:50:13 PM 44.1428 -108.3781 311° West 394 453 18,000 -4,131 Descending Salt Lake Center
Sun 10:52:00 PM 44.2691 -108.5874 310° West  Level FlightAware Approximate
Sun 10:59:00 PM 44.5167 -109.0167 313° West  Level FlightAware Approximate
Sun 11:00:00 PM 44.5202 -109.0238 313° West  Level Estimated
Sun 11:01:00 PM 44.5167 -109.0167 313° West  Level FlightAware Approximate

Login

Don't have an account? Register now (free) for customized features, flight alerts, and more!